Terminal Aerodrome Forecast
Issued by NWS

Home | Current Version | Previous Version | Text Only | Print | Product List | Glossary On
Versions: 1 2 3 4 5 6 7 8 9 10 11 12 13 14 15 16 17 18 19 20
000
FTUS43 KDTX 211522 AAA
TAFPTK
TAF AMD
KPTK 211522Z 2115/2212 36012KT P6SM OVC015
     FM211800 36012KT P6SM BKN025 OVC150
     FM212100 36010KT P6SM SCT025 BKN150
     FM212300 03006KT P6SM SCT150=

USA.gov is the U.S. government's official web portal to all federal, state and local government web resources and services.